Terminal Aerodrome Forecast
Issued by NWS

Home | Current Version | Previous Version | Text Only | Print | Product List | Glossary On
Versions: 1 2 3 4 5 6 7 8 9 10 11 12 13 14 15 16 17 18 19 20 21 22 23 24 25
000
FTUS43 KABR 261728
TAFPIR
TAF
KPIR 261728Z 2618/2718 VRB06KT P6SM SCT030
     FM270100 01004KT P6SM FEW150
     FM270200 09004KT P6SM FEW200
     FM270500 17004KT P6SM FEW200
     FM270900 23004KT P6SM FEW250=

USA.gov is the U.S. government's official web portal to all federal, state and local government web resources and services.